createdAt,value
2019-05-18T00:00:56.825Z,7.05
2019-05-18T00:04:02.497Z,6.60
2019-05-18T00:07:08.038Z,8.78
2019-05-18T00:10:13.682Z,6.47
2019-05-18T00:13:21.150Z,7.45
2019-05-18T00:16:26.710Z,8.60
2019-05-18T00:19:32.360Z,7.50
2019-05-18T00:22:38.037Z,7.03
2019-05-18T00:25:43.662Z,6.15
2019-05-18T00:28:49.375Z,9.00
2019-05-18T00:31:55.065Z,7.47
2019-05-18T00:35:00.685Z,8.20
2019-05-18T00:38:06.385Z,6.22
2019-05-18T00:41:12.977Z,8.33
2019-05-18T00:44:19.225Z,6.60
2019-05-18T00:47:40.068Z,6.55
2019-05-18T00:50:32.092Z,6.72
2019-05-18T00:53:37.766Z,8.48
2019-05-18T00:56:43.425Z,8.28
2019-05-18T00:59:49.049Z,10.05
2019-05-18T01:02:54.693Z,7.80
2019-05-18T01:06:00.250Z,9.48
2019-05-18T01:09:07.365Z,7.65
2019-05-18T01:12:13.195Z,6.92
2019-05-18T01:15:19.555Z,8.15
2019-05-18T01:18:25.242Z,6.15
2019-05-18T01:21:31.909Z,7.17
2019-05-18T01:24:39.253Z,7.22
2019-05-18T01:27:44.938Z,6.87
2019-05-18T01:30:50.642Z,6.65
2019-05-18T01:33:56.269Z,6.87
2019-05-18T01:37:01.857Z,7.03
2019-05-18T01:40:09.336Z,7.03
2019-05-18T01:43:14.938Z,7.25
2019-05-18T01:46:20.566Z,7.78
2019-05-18T01:49:26.260Z,8.53
2019-05-18T01:52:31.799Z,7.67
2019-05-18T01:55:37.515Z,7.53
2019-05-18T01:58:44.153Z,6.63
2019-05-18T02:01:49.885Z,6.58
2019-05-18T02:04:55.537Z,8.48
2019-05-18T02:08:01.153Z,7.83
2019-05-18T02:11:06.746Z,9.08
2019-05-18T02:14:13.302Z,6.95
2019-05-18T02:17:19.042Z,7.62
2019-05-18T02:20:24.722Z,7.92
2019-05-18T02:23:30.373Z,7.60
2019-05-18T02:26:36.006Z,8.38
2019-05-18T02:29:41.521Z,7.67
2019-05-18T02:32:47.128Z,7.30
2019-05-18T02:35:52.778Z,6.92
2019-05-18T02:38:58.428Z,7.85
2019-05-18T02:42:04.171Z,7.90
2019-05-18T02:45:10.129Z,7.22
2019-05-18T02:48:15.901Z,7.75
2019-05-18T02:51:21.676Z,8.00
2019-05-18T02:54:27.447Z,7.87
2019-05-18T02:57:33.067Z,9.70
2019-05-18T03:00:38.686Z,7.75
2019-05-18T03:03:44.370Z,8.43
2019-05-18T03:06:50.030Z,8.78
2019-05-18T03:09:55.691Z,7.10
2019-05-18T03:13:01.299Z,7.47
2019-05-18T03:16:08.931Z,7.20
2019-05-18T03:19:14.586Z,7.95
2019-05-18T03:22:21.359Z,6.62
2019-05-18T03:25:27.022Z,7.60
2019-05-18T03:28:32.668Z,6.50
2019-05-18T03:31:38.329Z,7.85
2019-05-18T03:34:44.076Z,8.18
2019-05-18T03:37:49.737Z,7.53
2019-05-18T03:40:55.338Z,7.30
2019-05-18T03:44:00.958Z,7.22
2019-05-18T03:47:06.566Z,6.90
2019-05-18T03:50:12.395Z,6.53
2019-05-18T03:53:19.138Z,6.70
2019-05-18T03:56:24.915Z,5.80
2019-05-18T03:59:30.639Z,6.70
2019-05-18T04:02:36.289Z,7.17
2019-05-18T04:05:41.980Z,8.33
2019-05-18T04:08:47.583Z,8.43
2019-05-18T04:11:53.258Z,8.68
2019-05-18T04:14:58.944Z,7.22
2019-05-18T04:18:04.569Z,7.85
2019-05-18T04:21:10.280Z,8.08
2019-05-18T04:24:15.911Z,7.95
2019-05-18T04:27:21.520Z,8.55
2019-05-18T04:30:27.167Z,8.03
2019-05-18T04:33:32.794Z,8.28
2019-05-18T04:36:38.370Z,8.43
2019-05-18T04:39:44.062Z,7.30
2019-05-18T04:42:49.678Z,8.28
2019-05-18T04:45:55.353Z,8.60
2019-05-18T04:49:00.950Z,8.45
2019-05-18T04:52:06.431Z,7.83
2019-05-18T04:55:12.213Z,8.00
2019-05-18T04:58:17.692Z,8.38
2019-05-18T05:01:23.314Z,7.00
2019-05-18T05:04:28.833Z,6.05
2019-05-18T05:07:34.458Z,5.00
2019-05-18T05:10:40.062Z,5.33
2019-05-18T05:13:45.710Z,5.60
2019-05-18T05:16:51.494Z,5.28
2019-05-18T05:19:57.202Z,6.53
2019-05-18T05:23:02.732Z,11.55
2019-05-18T05:26:08.429Z,35.80
2019-05-18T05:29:14.174Z,32.93
2019-05-18T05:32:19.827Z,42.17
2019-05-18T05:35:25.506Z,29.65
2019-05-18T05:38:31.224Z,11.57
2019-05-18T05:41:36.772Z,11.03
2019-05-18T05:44:42.323Z,12.60
2019-05-18T05:47:48.118Z,15.93
2019-05-18T05:50:54.890Z,13.10
2019-05-18T05:54:00.509Z,12.40
2019-05-18T05:57:06.153Z,12.70
2019-05-18T06:00:12.335Z,11.40
2019-05-18T06:03:17.984Z,15.50
2019-05-18T06:06:24.659Z,14.13
2019-05-18T06:09:30.322Z,16.32
2019-05-18T06:12:36.080Z,12.07
2019-05-18T06:15:41.718Z,9.33
2019-05-18T06:18:48.378Z,9.78
2019-05-18T06:21:54.013Z,9.53
2019-05-18T06:24:59.598Z,12.33
2019-05-18T06:28:06.378Z,9.03
2019-05-18T06:31:12.038Z,10.30
2019-05-18T06:34:17.732Z,9.93
2019-05-18T06:37:23.306Z,11.05
2019-05-18T06:40:28.885Z,9.28
2019-05-18T06:43:34.558Z,12.07
2019-05-18T06:46:40.021Z,9.68
2019-05-18T06:49:45.637Z,8.10
2019-05-18T06:52:51.290Z,7.10
2019-05-18T06:55:57.295Z,7.95
2019-05-18T06:59:03.195Z,10.20
2019-05-18T07:02:08.867Z,7.62
2019-05-18T07:05:14.614Z,9.75
2019-05-18T07:08:20.278Z,10.23
2019-05-18T07:11:25.926Z,6.45
2019-05-18T07:14:31.549Z,7.37
2019-05-18T07:17:37.239Z,8.70
2019-05-18T07:20:42.987Z,6.70
2019-05-18T07:23:48.638Z,8.18
2019-05-18T07:26:55.117Z,8.70
2019-05-18T07:30:00.767Z,8.05
2019-05-18T07:33:06.496Z,6.30
2019-05-18T07:36:12.234Z,8.80
2019-05-18T07:39:17.930Z,11.10
2019-05-18T07:42:23.610Z,8.08
2019-05-18T07:45:29.093Z,9.33
2019-05-18T07:48:36.522Z,8.53
2019-05-18T07:51:42.193Z,7.25
2019-05-18T07:54:47.926Z,7.30
2019-05-18T07:57:53.612Z,7.97
2019-05-18T08:00:59.264Z,5.95
2019-05-18T08:04:05.027Z,10.43
2019-05-18T08:07:10.645Z,8.73
2019-05-18T08:10:19.183Z,7.00
2019-05-18T08:13:24.834Z,7.60
2019-05-18T08:16:30.446Z,8.58
2019-05-18T08:19:36.165Z,7.55
2019-05-18T08:22:41.770Z,6.28
2019-05-18T08:25:47.417Z,5.83
2019-05-18T08:28:54.829Z,6.28
2019-05-18T08:32:00.570Z,6.83
2019-05-18T08:35:06.637Z,7.60
2019-05-18T08:38:12.287Z,6.20
2019-05-18T08:41:18.151Z,6.37
2019-05-18T08:44:24.762Z,5.92
2019-05-18T08:47:31.404Z,5.97
2019-05-18T08:50:37.027Z,6.05
2019-05-18T08:53:42.738Z,6.90
2019-05-18T08:56:48.391Z,7.03
2019-05-18T08:59:56.035Z,6.33
2019-05-18T09:03:01.930Z,7.53
2019-05-18T09:06:07.673Z,7.95
2019-05-18T09:09:13.321Z,6.95
2019-05-18T09:12:18.959Z,6.80
2019-05-18T09:15:24.676Z,7.83
2019-05-18T09:18:30.381Z,9.68
2019-05-18T09:21:36.038Z,6.40
2019-05-18T09:24:41.691Z,5.92
2019-05-18T09:27:47.317Z,6.42
2019-05-18T09:30:53.079Z,7.65
2019-05-18T09:33:58.654Z,5.97
2019-05-18T09:37:04.307Z,5.55
2019-05-18T09:40:10.566Z,6.47
2019-05-18T09:43:16.285Z,6.65
2019-05-18T09:46:22.095Z,6.42
2019-05-18T09:49:27.800Z,6.60
2019-05-18T09:52:44.621Z,5.25
2019-05-18T09:55:40.695Z,5.97
2019-05-18T09:58:46.322Z,6.30
2019-05-18T10:01:51.993Z,6.22
2019-05-18T10:04:57.626Z,6.58
2019-05-18T10:08:04.266Z,5.80
2019-05-18T10:11:09.813Z,5.85
2019-05-18T10:14:16.539Z,6.08
2019-05-18T10:17:22.194Z,7.08
2019-05-18T10:20:27.935Z,5.47
2019-05-18T10:23:33.598Z,5.55
2019-05-18T10:26:39.238Z,5.22
2019-05-18T10:29:46.746Z,5.20
2019-05-18T10:32:53.185Z,5.20
2019-05-18T10:35:58.930Z,6.10
2019-05-18T10:39:06.549Z,6.28
2019-05-18T10:42:12.186Z,5.22
2019-05-18T10:45:17.942Z,5.80
2019-05-18T10:48:24.722Z,5.22
2019-05-18T10:51:30.294Z,5.30
2019-05-18T10:54:38.173Z,5.30
2019-05-18T10:57:43.861Z,5.40
2019-05-18T11:00:49.502Z,5.20
2019-05-18T11:03:55.162Z,5.17
2019-05-18T11:07:00.842Z,6.22
2019-05-18T11:10:07.350Z,5.00
2019-05-18T11:13:12.995Z,6.22
2019-05-18T11:16:18.597Z,6.40
2019-05-18T11:19:25.981Z,4.80
2019-05-18T11:22:31.642Z,5.50
2019-05-18T11:25:37.294Z,5.25
2019-05-18T11:28:42.834Z,5.30
2019-05-18T11:31:48.605Z,5.10
2019-05-18T11:34:54.285Z,5.55
2019-05-18T11:37:59.865Z,5.22
2019-05-18T11:41:05.449Z,5.67
2019-05-18T11:44:11.107Z,5.60
2019-05-18T11:47:16.754Z,4.97
2019-05-18T11:50:22.749Z,5.00
2019-05-18T11:53:28.363Z,5.72
2019-05-18T11:56:34.130Z,5.22
2019-05-18T11:59:40.897Z,6.03
2019-05-18T12:02:46.580Z,5.42
2019-05-18T12:05:52.338Z,5.12
2019-05-18T12:08:58.709Z,5.00
2019-05-18T12:12:04.442Z,5.15
2019-05-18T12:15:10.874Z,5.47
2019-05-18T12:18:18.140Z,5.55
2019-05-18T12:21:23.774Z,5.22
2019-05-18T12:24:29.647Z,5.75
2019-05-18T12:27:35.291Z,5.17
2019-05-18T12:30:41.909Z,5.50
2019-05-18T12:33:47.561Z,4.75
2019-05-18T12:36:53.381Z,6.62
2019-05-18T12:39:59.015Z,5.37
2019-05-18T12:43:04.682Z,5.67
2019-05-18T12:46:10.271Z,5.22
2019-05-18T12:49:15.929Z,4.67
2019-05-18T12:52:21.644Z,4.83
2019-05-18T12:55:27.162Z,4.70
2019-05-18T12:58:32.806Z,4.95
2019-05-18T13:01:38.466Z,6.05
2019-05-18T13:04:44.130Z,4.83
2019-05-18T13:07:49.803Z,5.15
2019-05-18T13:10:56.550Z,5.35
2019-05-18T13:14:02.266Z,5.03
2019-05-18T13:17:07.887Z,4.35
2019-05-18T13:20:15.010Z,4.65
2019-05-18T13:23:20.591Z,4.92
2019-05-18T13:26:26.219Z,4.78
2019-05-18T13:29:32.038Z,4.70
2019-05-18T13:32:37.699Z,5.17
2019-05-18T13:35:45.558Z,4.72
2019-05-18T13:38:50.567Z,5.20
2019-05-18T13:41:56.150Z,6.85
2019-05-18T13:45:01.810Z,4.90
2019-05-18T13:48:08.372Z,5.25
2019-05-18T13:51:14.022Z,5.33
2019-05-18T13:54:19.683Z,4.87
2019-05-18T13:57:25.202Z,5.00
2019-05-18T14:00:30.851Z,4.75
2019-05-18T14:03:36.530Z,4.90
2019-05-18T14:06:42.297Z,5.40
2019-05-18T14:09:47.919Z,5.28
2019-05-18T14:12:53.901Z,4.47
2019-05-18T14:15:59.525Z,4.70
2019-05-18T14:19:05.113Z,5.42
2019-05-18T14:22:10.763Z,4.60
2019-05-18T14:25:19.646Z,5.00
2019-05-18T14:28:23.942Z,4.30
2019-05-18T14:31:29.534Z,5.25
2019-05-18T14:34:35.126Z,4.45
2019-05-18T14:37:40.658Z,5.47
2019-05-18T14:40:46.318Z,4.50
2019-05-18T14:43:52.103Z,4.95
2019-05-18T14:46:57.726Z,5.35
2019-05-18T14:50:03.369Z,4.92
2019-05-18T14:53:09.031Z,4.80
2019-05-18T14:56:17.038Z,4.90
2019-05-18T14:59:22.693Z,4.72
2019-05-18T15:02:29.251Z,4.35
2019-05-18T15:05:34.826Z,4.83
2019-05-18T15:08:40.338Z,4.40
2019-05-18T15:11:46.014Z,4.85
2019-05-18T15:14:51.799Z,4.28
2019-05-18T15:17:58.553Z,4.60
2019-05-18T15:21:04.179Z,4.60
2019-05-18T15:24:09.974Z,4.75
2019-05-18T15:27:15.583Z,4.83
2019-05-18T15:30:21.582Z,4.50
2019-05-18T15:33:27.370Z,4.22
2019-05-18T15:36:32.981Z,4.33
2019-05-18T15:39:38.666Z,5.12
2019-05-18T15:42:44.261Z,4.95
2019-05-18T15:45:49.838Z,4.28
2019-05-18T15:48:55.560Z,5.12
2019-05-18T15:52:01.205Z,4.37
2019-05-18T15:55:07.267Z,4.45
2019-05-18T15:58:12.822Z,4.30
2019-05-18T16:01:20.318Z,4.53
2019-05-18T16:04:26.065Z,4.50
2019-05-18T16:07:31.822Z,4.47
2019-05-18T16:10:37.360Z,4.20
2019-05-18T16:13:43.959Z,4.20
2019-05-18T16:16:54.424Z,4.15
2019-05-18T16:19:57.824Z,3.95
2019-05-18T16:23:03.579Z,4.40
2019-05-18T16:26:21.120Z,4.33
2019-05-18T16:29:16.558Z,4.20
2019-05-18T16:32:22.126Z,4.33
2019-05-18T16:35:27.890Z,4.03
2019-05-18T16:38:33.507Z,4.20
2019-05-18T16:41:39.191Z,4.00
2019-05-18T16:44:44.946Z,4.20
2019-05-18T16:47:50.571Z,4.10
2019-05-18T16:50:57.244Z,4.10
2019-05-18T16:54:04.778Z,3.90
2019-05-18T16:57:10.393Z,4.15
2019-05-18T17:00:17.550Z,4.00
2019-05-18T17:03:23.229Z,4.00
2019-05-18T17:06:28.785Z,4.45
2019-05-18T17:09:35.417Z,4.40
2019-05-18T17:12:41.251Z,4.03
2019-05-18T17:15:46.999Z,4.10
2019-05-18T17:18:52.525Z,4.08
2019-05-18T17:21:58.202Z,3.45
2019-05-18T17:25:05.380Z,4.28
2019-05-18T17:28:11.261Z,3.62
2019-05-18T17:31:17.057Z,3.87
2019-05-18T17:34:22.777Z,3.70
2019-05-18T17:37:29.786Z,4.50
2019-05-18T17:40:35.453Z,4.10
2019-05-18T17:43:41.150Z,4.35
2019-05-18T17:46:46.758Z,3.67
2019-05-18T17:49:52.619Z,4.50
2019-05-18T17:53:00.200Z,3.55
2019-05-18T17:56:05.887Z,4.40
2019-05-18T17:59:11.507Z,4.08
2019-05-18T18:02:17.078Z,3.80
2019-05-18T18:05:22.722Z,3.67
2019-05-18T18:08:28.507Z,3.52
2019-05-18T18:11:34.133Z,3.55
2019-05-18T18:14:41.638Z,3.55
2019-05-18T18:17:48.602Z,4.12
2019-05-18T18:20:54.311Z,3.02
2019-05-18T18:24:00.854Z,4.15
2019-05-18T18:27:07.419Z,3.50
2019-05-18T18:30:13.680Z,4.35
2019-05-18T18:33:20.234Z,3.90
2019-05-18T18:36:25.930Z,4.10
2019-05-18T18:39:31.492Z,3.60
2019-05-18T18:42:37.598Z,4.00
2019-05-18T18:45:43.494Z,3.58
2019-05-18T18:48:49.130Z,3.85
2019-05-18T18:51:54.871Z,3.35
2019-05-18T18:55:00.458Z,3.72
2019-05-18T18:58:06.230Z,3.75
2019-05-18T19:01:11.766Z,3.77
2019-05-18T19:04:17.381Z,3.42
2019-05-18T19:07:23.031Z,4.40
2019-05-18T19:10:28.613Z,3.87
2019-05-18T19:13:34.299Z,3.62
2019-05-18T19:16:39.897Z,3.87
2019-05-18T19:19:45.575Z,3.52
2019-05-18T19:22:51.372Z,3.27
2019-05-18T19:25:57.078Z,3.83
2019-05-18T19:29:02.750Z,3.62
2019-05-18T19:32:08.390Z,3.55
2019-05-18T19:35:15.448Z,3.83
2019-05-18T19:38:21.141Z,4.15
2019-05-18T19:41:26.846Z,3.50
2019-05-18T19:44:32.578Z,18.50
2019-05-18T19:47:38.269Z,17.45
2019-05-18T19:50:43.957Z,44.27
2019-05-18T19:53:51.754Z,30.12
2019-05-18T19:56:57.466Z,20.23
2019-05-18T20:00:04.103Z,23.02
2019-05-18T20:03:10.010Z,14.28
2019-05-18T20:06:15.610Z,11.28
2019-05-18T20:09:22.382Z,16.10
2019-05-18T20:12:28.022Z,14.33
2019-05-18T20:15:33.711Z,13.45
2019-05-18T20:18:39.373Z,10.43
2019-05-18T20:21:44.956Z,9.88
2019-05-18T20:29:25.318Z,10.90
2019-05-18T20:32:30.759Z,10.95
2019-05-18T20:35:36.411Z,9.25
2019-05-18T20:38:42.142Z,8.10
2019-05-18T20:41:48.015Z,6.67
2019-05-18T20:44:53.642Z,7.03
2019-05-18T20:47:59.291Z,8.13
2019-05-18T20:51:04.947Z,6.12
2019-05-18T20:54:10.674Z,5.78
2019-05-18T20:57:16.345Z,7.15
2019-05-18T21:00:21.901Z,6.72
2019-05-18T21:03:27.549Z,6.97
2019-05-18T21:06:34.098Z,5.72
2019-05-18T21:09:39.795Z,4.65
2019-05-18T21:12:45.436Z,5.53
2019-05-18T21:15:51.049Z,5.08
2019-05-18T21:18:56.766Z,5.28
2019-05-18T21:22:04.433Z,5.70
2019-05-18T21:25:11.939Z,4.22
2019-05-18T21:28:17.595Z,8.10
2019-05-18T21:31:23.209Z,5.87
2019-05-18T21:34:28.914Z,3.33
2019-05-18T21:37:34.542Z,4.35
2019-05-18T21:40:40.213Z,5.10
2019-05-18T21:43:45.702Z,3.77
2019-05-18T21:46:51.398Z,5.03
2019-05-18T21:49:58.081Z,4.80
2019-05-18T21:53:03.717Z,5.20
2019-05-18T21:56:09.303Z,5.37
2019-05-18T21:59:15.046Z,5.42
2019-05-18T22:02:20.742Z,4.37
2019-05-18T22:05:26.733Z,4.78
2019-05-18T22:08:32.418Z,5.28
2019-05-18T22:11:38.049Z,3.85
2019-05-18T22:14:43.749Z,4.17
2019-05-18T22:18:04.550Z,7.92
2019-05-18T22:21:10.317Z,5.25
2019-05-18T22:24:16.042Z,4.37
2019-05-18T22:27:21.711Z,5.40
2019-05-18T22:30:27.392Z,4.10
2019-05-18T22:33:32.942Z,4.75
2019-05-18T22:36:38.639Z,4.08
2019-05-18T22:39:44.395Z,4.75
2019-05-18T22:42:50.085Z,4.17
2019-05-18T22:45:55.743Z,4.92
2019-05-18T22:49:01.350Z,5.12
2019-05-18T22:52:07.055Z,4.67
2019-05-18T22:55:13.867Z,4.08
2019-05-18T22:58:19.507Z,4.45
2019-05-18T23:01:25.172Z,5.17
2019-05-18T23:04:30.777Z,4.78
2019-05-18T23:07:36.515Z,7.20
2019-05-18T23:10:42.266Z,3.75
2019-05-18T23:13:47.949Z,4.95
2019-05-18T23:16:53.645Z,4.42
2019-05-18T23:19:59.229Z,3.98
2019-05-18T23:23:04.925Z,4.33
2019-05-18T23:26:11.625Z,3.95
2019-05-18T23:29:17.742Z,5.50
2019-05-18T23:32:23.378Z,8.15
2019-05-18T23:35:29.003Z,15.38
2019-05-18T23:38:34.615Z,12.65
2019-05-18T23:41:41.466Z,14.68
2019-05-18T23:44:49.878Z,8.15
2019-05-18T23:47:55.570Z,8.68
2019-05-18T23:55:32.656Z,7.53
2019-05-18T23:58:38.273Z,5.58
